sensor_id;sensor_type;location;lat;lon;timestamp;pressure;altitude;pressure_sealevel;temperature;humidity
59757;BME280;45631;51.962;5.974;2022-10-16T00:01:08;100855.97;;;10.72;100.00
59757;BME280;45631;51.962;5.974;2022-10-16T00:03:38;100856.56;;;10.75;100.00
59757;BME280;45631;51.962;5.974;2022-10-16T00:06:08;100855.84;;;10.73;100.00
59757;BME280;45631;51.962;5.974;2022-10-16T00:08:37;100857.63;;;10.73;100.00
59757;BME280;45631;51.962;5.974;2022-10-16T00:11:07;100856.78;;;10.72;100.00
59757;BME280;45631;51.962;5.974;2022-10-16T00:13:38;100858.59;;;10.72;100.00
59757;BME280;45631;51.962;5.974;2022-10-16T00:16:07;100855.84;;;10.73;100.00
59757;BME280;45631;51.962;5.974;2022-10-16T00:18:36;100854.25;;;10.71;100.00
59757;BME280;45631;51.962;5.974;2022-10-16T00:21:06;100855.75;;;10.75;100.00
59757;BME280;45631;51.962;5.974;2022-10-16T00:23:36;100842.88;;;10.70;100.00
59757;BME280;45631;51.962;5.974;2022-10-16T00:26:06;100848.13;;;10.70;100.00
59757;BME280;45631;51.962;5.974;2022-10-16T00:28:36;100854.84;;;10.61;100.00
59757;BME280;45631;51.962;5.974;2022-10-16T00:31:05;100853.25;;;10.59;100.00
59757;BME280;45631;51.962;5.974;2022-10-16T00:33:34;100850.00;;;10.55;100.00
59757;BME280;45631;51.962;5.974;2022-10-16T00:36:04;100851.13;;;10.51;100.00
59757;BME280;45631;51.962;5.974;2022-10-16T00:38:32;100849.56;;;10.48;100.00
59757;BME280;45631;51.962;5.974;2022-10-16T00:41:02;100848.44;;;10.38;100.00
59757;BME280;45631;51.962;5.974;2022-10-16T00:43:36;100850.50;;;10.33;100.00
59757;BME280;45631;51.962;5.974;2022-10-16T00:46:10;100855.75;;;10.33;100.00
59757;BME280;45631;51.962;5.974;2022-10-16T00:48:42;100856.44;;;10.37;100.00
59757;BME280;45631;51.962;5.974;2022-10-16T00:51:13;100847.63;;;10.38;100.00
59757;BME280;45631;51.962;5.974;2022-10-16T00:53:42;100850.25;;;10.38;100.00
59757;BME280;45631;51.962;5.974;2022-10-16T00:56:13;100848.72;;;10.34;100.00
59757;BME280;45631;51.962;5.974;2022-10-16T00:58:41;100845.44;;;10.30;100.00
59757;BME280;45631;51.962;5.974;2022-10-16T01:01:09;100849.22;;;10.26;100.00
59757;BME280;45631;51.962;5.974;2022-10-16T01:03:38;100854.56;;;10.24;100.00
59757;BME280;45631;51.962;5.974;2022-10-16T01:06:20;100859.06;;;10.22;100.00
59757;BME280;45631;51.962;5.974;2022-10-16T01:09:09;100856.63;;;10.19;100.00
59757;BME280;45631;51.962;5.974;2022-10-16T01:11:45;100860.19;;;10.18;100.00
59757;BME280;45631;51.962;5.974;2022-10-16T01:14:22;100865.66;;;10.15;100.00
59757;BME280;45631;51.962;5.974;2022-10-16T01:16:59;100855.25;;;10.13;100.00
59757;BME280;45631;51.962;5.974;2022-10-16T01:19:56;100862.19;;;10.14;100.00
59757;BME280;45631;51.962;5.974;2022-10-16T01:22:38;100861.34;;;10.14;100.00
59757;BME280;45631;51.962;5.974;2022-10-16T01:25:12;100860.59;;;10.12;100.00
59757;BME280;45631;51.962;5.974;2022-10-16T01:27:46;100850.34;;;10.07;100.00
59757;BME280;45631;51.962;5.974;2022-10-16T01:30:18;100843.34;;;10.08;100.00
59757;BME280;45631;51.962;5.974;2022-10-16T01:32:50;100839.03;;;10.07;100.00
59757;BME280;45631;51.962;5.974;2022-10-16T01:35:24;100848.88;;;10.03;100.00
59757;BME280;45631;51.962;5.974;2022-10-16T01:37:58;100846.34;;;10.02;100.00
59757;BME280;45631;51.962;5.974;2022-10-16T01:40:30;100844.66;;;10.01;100.00
59757;BME280;45631;51.962;5.974;2022-10-16T01:43:04;100842.88;;;10.01;100.00
59757;BME280;45631;51.962;5.974;2022-10-16T01:45:34;100850.00;;;9.99;100.00
59757;BME280;45631;51.962;5.974;2022-10-16T01:48:05;100848.41;;;9.96;100.00
59757;BME280;45631;51.962;5.974;2022-10-16T01:50:39;100844.13;;;9.95;100.00
59757;BME280;45631;51.962;5.974;2022-10-16T01:53:12;100846.44;;;10.00;100.00
59757;BME280;45631;51.962;5.974;2022-10-16T01:55:43;100859.47;;;10.02;100.00
59757;BME280;45631;51.962;5.974;2022-10-16T01:58:15;100851.59;;;10.02;100.00
59757;BME280;45631;51.962;5.974;2022-10-16T02:00:44;100860.78;;;10.09;100.00
59757;BME280;45631;51.962;5.974;2022-10-16T02:03:16;100864.94;;;10.13;100.00
59757;BME280;45631;51.962;5.974;2022-10-16T02:05:47;100876.16;;;10.15;100.00
59757;BME280;45631;51.962;5.974;2022-10-16T02:08:18;100862.81;;;10.18;100.00
59757;BME280;45631;51.962;5.974;2022-10-16T02:10:46;100854.66;;;10.23;100.00
59757;BME280;45631;51.962;5.974;2022-10-16T02:13:21;100851.06;;;10.24;100.00
59757;BME280;45631;51.962;5.974;2022-10-16T02:15:50;100860.28;;;10.31;100.00
59757;BME280;45631;51.962;5.974;2022-10-16T02:18:21;100852.00;;;10.37;100.00
59757;BME280;45631;51.962;5.974;2022-10-16T02:20:53;100860.75;;;10.38;100.00
59757;BME280;45631;51.962;5.974;2022-10-16T02:23:29;100863.28;;;10.39;100.00
59757;BME280;45631;51.962;5.974;2022-10-16T02:26:04;100864.03;;;10.41;100.00
59757;BME280;45631;51.962;5.974;2022-10-16T02:28:39;100867.88;;;10.50;100.00
59757;BME280;45631;51.962;5.974;2022-10-16T02:31:11;100874.19;;;10.60;100.00
59757;BME280;45631;51.962;5.974;2022-10-16T02:33:44;100863.91;;;10.70;100.00
59757;BME280;45631;51.962;5.974;2022-10-16T02:36:13;100863.28;;;10.67;100.00
59757;BME280;45631;51.962;5.974;2022-10-16T02:38:42;100859.53;;;10.71;100.00
59757;BME280;45631;51.962;5.974;2022-10-16T02:41:10;100860.56;;;10.68;100.00
59757;BME280;45631;51.962;5.974;2022-10-16T02:43:40;100856.03;;;10.70;100.00
59757;BME280;45631;51.962;5.974;2022-10-16T02:46:08;100846.25;;;10.72;100.00
59757;BME280;45631;51.962;5.974;2022-10-16T02:48:37;100858.75;;;10.69;100.00
59757;BME280;45631;51.962;5.974;2022-10-16T02:51:06;100871.91;;;10.69;100.00
59757;BME280;45631;51.962;5.974;2022-10-16T02:53:34;100859.72;;;10.68;100.00
59757;BME280;45631;51.962;5.974;2022-10-16T02:56:04;100867.63;;;10.68;100.00
59757;BME280;45631;51.962;5.974;2022-10-16T02:58:33;100867.50;;;10.69;100.00
59757;BME280;45631;51.962;5.974;2022-10-16T03:01:02;100878.56;;;10.74;100.00
59757;BME280;45631;51.962;5.974;2022-10-16T03:03:31;100883.75;;;10.76;100.00
59757;BME280;45631;51.962;5.974;2022-10-16T03:05:59;100876.59;;;10.78;100.00
59757;BME280;45631;51.962;5.974;2022-10-16T03:08:27;100869.84;;;10.74;100.00
59757;BME280;45631;51.962;5.974;2022-10-16T03:10:56;100866.53;;;10.70;100.00
59757;BME280;45631;51.962;5.974;2022-10-16T03:13:24;100870.25;;;10.68;100.00
59757;BME280;45631;51.962;5.974;2022-10-16T03:15:52;100872.22;;;10.64;100.00
59757;BME280;45631;51.962;5.974;2022-10-16T03:18:24;100864.78;;;10.71;100.00
59757;BME280;45631;51.962;5.974;2022-10-16T03:20:53;100865.72;;;10.70;100.00
59757;BME280;45631;51.962;5.974;2022-10-16T03:23:21;100870.03;;;10.71;100.00
59757;BME280;45631;51.962;5.974;2022-10-16T03:25:49;100877.06;;;10.70;100.00
59757;BME280;45631;51.962;5.974;2022-10-16T03:28:17;100872.56;;;10.72;100.00
59757;BME280;45631;51.962;5.974;2022-10-16T03:30:45;100888.44;;;10.71;100.00
59757;BME280;45631;51.962;5.974;2022-10-16T03:33:13;100880.25;;;10.75;100.00
59757;BME280;45631;51.962;5.974;2022-10-16T03:35:42;100882.25;;;10.72;100.00
59757;BME280;45631;51.962;5.974;2022-10-16T03:38:18;100882.97;;;10.74;100.00
59757;BME280;45631;51.962;5.974;2022-10-16T03:40:46;100879.41;;;10.75;100.00
59757;BME280;45631;51.962;5.974;2022-10-16T03:43:14;100880.34;;;10.74;100.00
59757;BME280;45631;51.962;5.974;2022-10-16T03:45:42;100896.13;;;10.74;100.00
59757;BME280;45631;51.962;5.974;2022-10-16T03:48:11;100897.84;;;10.75;100.00
59757;BME280;45631;51.962;5.974;2022-10-16T03:50:39;100894.16;;;10.77;100.00
59757;BME280;45631;51.962;5.974;2022-10-16T03:53:08;100898.66;;;10.75;100.00
59757;BME280;45631;51.962;5.974;2022-10-16T03:55:36;100900.16;;;10.79;100.00
59757;BME280;45631;51.962;5.974;2022-10-16T03:58:05;100898.50;;;10.78;100.00
59757;BME280;45631;51.962;5.974;2022-10-16T04:00:33;100894.25;;;10.76;100.00
59757;BME280;45631;51.962;5.974;2022-10-16T04:03:02;100891.44;;;10.79;100.00
59757;BME280;45631;51.962;5.974;2022-10-16T04:05:30;100890.50;;;10.80;100.00
59757;BME280;45631;51.962;5.974;2022-10-16T04:07:58;100887.84;;;10.80;100.00
59757;BME280;45631;51.962;5.974;2022-10-16T04:10:27;100896.28;;;10.85;100.00
59757;BME280;45631;51.962;5.974;2022-10-16T04:12:55;100909.53;;;10.83;100.00
59757;BME280;45631;51.962;5.974;2022-10-16T04:15:25;100911.03;;;10.88;100.00
59757;BME280;45631;51.962;5.974;2022-10-16T04:17:53;100918.06;;;10.87;100.00
59757;BME280;45631;51.962;5.974;2022-10-16T04:20:21;100926.81;;;10.88;100.00
59757;BME280;45631;51.962;5.974;2022-10-16T04:22:49;100922.50;;;10.87;100.00
59757;BME280;45631;51.962;5.974;2022-10-16T04:25:17;100930.81;;;10.93;100.00
59757;BME280;45631;51.962;5.974;2022-10-16T04:27:47;100925.38;;;10.96;100.00
59757;BME280;45631;51.962;5.974;2022-10-16T04:30:15;100926.31;;;10.95;100.00
59757;BME280;45631;51.962;5.974;2022-10-16T04:32:47;100936.84;;;10.95;100.00
59757;BME280;45631;51.962;5.974;2022-10-16T04:35:16;100936.53;;;11.00;100.00
59757;BME280;45631;51.962;5.974;2022-10-16T04:37:45;100937.38;;;11.01;100.00
59757;BME280;45631;51.962;5.974;2022-10-16T04:40:13;100945.28;;;11.01;100.00
59757;BME280;45631;51.962;5.974;2022-10-16T04:42:41;100942.66;;;11.01;100.00
59757;BME280;45631;51.962;5.974;2022-10-16T04:45:11;100948.66;;;11.03;100.00
59757;BME280;45631;51.962;5.974;2022-10-16T04:47:43;100948.66;;;11.03;100.00
59757;BME280;45631;51.962;5.974;2022-10-16T04:50:11;100954.78;;;11.03;100.00
59757;BME280;45631;51.962;5.974;2022-10-16T04:52:39;100952.97;;;11.04;100.00
59757;BME280;45631;51.962;5.974;2022-10-16T04:55:08;100951.28;;;11.03;100.00
59757;BME280;45631;51.962;5.974;2022-10-16T04:57:36;100955.16;;;10.97;100.00
59757;BME280;45631;51.962;5.974;2022-10-16T05:00:04;100953.78;;;10.91;100.00
59757;BME280;45631;51.962;5.974;2022-10-16T05:02:34;100971.97;;;10.94;100.00
59757;BME280;45631;51.962;5.974;2022-10-16T05:05:03;100967.66;;;10.93;100.00
59757;BME280;45631;51.962;5.974;2022-10-16T05:07:31;100967.88;;;10.90;100.00
59757;BME280;45631;51.962;5.974;2022-10-16T05:09:59;100965.78;;;10.95;100.00
59757;BME280;45631;51.962;5.974;2022-10-16T05:12:27;100975.16;;;10.99;100.00
59757;BME280;45631;51.962;5.974;2022-10-16T05:14:55;100970.22;;;10.95;100.00
59757;BME280;45631;51.962;5.974;2022-10-16T05:17:25;100973.47;;;10.98;100.00
59757;BME280;45631;51.962;5.974;2022-10-16T05:19:55;100979.59;;;10.99;100.00
59757;BME280;45631;51.962;5.974;2022-10-16T05:22:24;100982.50;;;10.94;100.00
59757;BME280;45631;51.962;5.974;2022-10-16T05:24:52;100984.41;;;10.92;100.00
59757;BME280;45631;51.962;5.974;2022-10-16T05:27:20;100998.41;;;10.93;100.00
59757;BME280;45631;51.962;5.974;2022-10-16T05:29:48;101004.06;;;10.87;100.00
59757;BME280;45631;51.962;5.974;2022-10-16T05:32:18;101004.91;;;10.87;100.00
59757;BME280;45631;51.962;5.974;2022-10-16T05:34:46;101005.84;;;10.86;100.00
59757;BME280;45631;51.962;5.974;2022-10-16T05:37:16;101013.00;;;10.84;100.00
59757;BME280;45631;51.962;5.974;2022-10-16T05:39:44;101008.97;;;10.78;100.00
59757;BME280;45631;51.962;5.974;2022-10-16T05:42:12;101016.94;;;10.77;100.00
59757;BME280;45631;51.962;5.974;2022-10-16T05:44:41;101015.44;;;10.73;100.00
59757;BME280;45631;51.962;5.974;2022-10-16T05:47:09;101019.66;;;10.75;100.00
59757;BME280;45631;51.962;5.974;2022-10-16T05:49:40;101030.59;;;10.69;100.00
59757;BME280;45631;51.962;5.974;2022-10-16T05:52:08;101036.88;;;10.67;100.00
59757;BME280;45631;51.962;5.974;2022-10-16T05:54:38;101033.50;;;10.64;100.00
59757;BME280;45631;51.962;5.974;2022-10-16T05:57:06;101039.88;;;10.60;100.00
59757;BME280;45631;51.962;5.974;2022-10-16T05:59:34;101055.88;;;10.57;100.00
59757;BME280;45631;51.962;5.974;2022-10-16T06:02:03;101054.38;;;10.53;100.00
59757;BME280;45631;51.962;5.974;2022-10-16T06:04:32;101058.84;;;10.51;100.00
59757;BME280;45631;51.962;5.974;2022-10-16T06:07:00;101056.78;;;10.56;100.00
59757;BME280;45631;51.962;5.974;2022-10-16T06:09:28;101067.06;;;10.61;100.00
59757;BME280;45631;51.962;5.974;2022-10-16T06:11:57;101071.53;;;10.59;100.00
59757;BME280;45631;51.962;5.974;2022-10-16T06:14:26;101072.56;;;10.56;100.00
59757;BME280;45631;51.962;5.974;2022-10-16T06:16:56;101071.53;;;10.59;100.00
59757;BME280;45631;51.962;5.974;2022-10-16T06:19:24;101076.06;;;10.57;100.00
59757;BME280;45631;51.962;5.974;2022-10-16T06:21:52;101074.47;;;10.54;100.00
59757;BME280;45631;51.962;5.974;2022-10-16T06:24:20;101074.63;;;10.51;100.00
59757;BME280;45631;51.962;5.974;2022-10-16T06:26:48;101075.31;;;10.55;100.00
59757;BME280;45631;51.962;5.974;2022-10-16T06:29:18;101081.50;;;10.54;100.00
59757;BME280;45631;51.962;5.974;2022-10-16T06:31:46;101076.81;;;10.59;100.00
59757;BME280;45631;51.962;5.974;2022-10-16T06:34:14;101081.81;;;10.63;100.00
59757;BME280;45631;51.962;5.974;2022-10-16T06:36:42;101092.22;;;10.65;100.00
59757;BME280;45631;51.962;5.974;2022-10-16T06:39:10;101084.25;;;10.67;100.00
59757;BME280;45631;51.962;5.974;2022-10-16T06:41:39;101089.00;;;10.74;100.00
59757;BME280;45631;51.962;5.974;2022-10-16T06:44:07;101095.84;;;10.77;100.00
59757;BME280;45631;51.962;5.974;2022-10-16T06:46:36;101093.78;;;10.82;100.00
59757;BME280;45631;51.962;5.974;2022-10-16T06:49:05;101106.50;;;10.90;100.00
59757;BME280;45631;51.962;5.974;2022-10-16T06:51:33;101106.09;;;10.96;100.00
59757;BME280;45631;51.962;5.974;2022-10-16T06:54:07;101112.84;;;11.00;100.00
59757;BME280;45631;51.962;5.974;2022-10-16T06:56:36;101127.97;;;11.11;100.00
59757;BME280;45631;51.962;5.974;2022-10-16T06:59:04;101123.72;;;11.23;100.00
59757;BME280;45631;51.962;5.974;2022-10-16T07:01:32;101133.78;;;11.30;100.00
59757;BME280;45631;51.962;5.974;2022-10-16T07:04:02;101137.50;;;11.41;100.00
59757;BME280;45631;51.962;5.974;2022-10-16T07:06:32;101143.13;;;11.49;100.00
59757;BME280;45631;51.962;5.974;2022-10-16T07:09:03;101146.31;;;11.54;100.00
59757;BME280;45631;51.962;5.974;2022-10-16T07:11:33;101146.88;;;11.59;100.00
59757;BME280;45631;51.962;5.974;2022-10-16T07:14:01;101153.41;;;11.66;100.00
59757;BME280;45631;51.962;5.974;2022-10-16T07:16:30;101151.44;;;11.70;100.00
59757;BME280;45631;51.962;5.974;2022-10-16T07:19:00;101160.72;;;11.76;100.00
59757;BME280;45631;51.962;5.974;2022-10-16T07:21:31;101164.97;;;11.78;100.00
59757;BME280;45631;51.962;5.974;2022-10-16T07:24:04;101170.03;;;11.81;100.00
59757;BME280;45631;51.962;5.974;2022-10-16T07:26:34;101175.72;;;11.88;100.00
59757;BME280;45631;51.962;5.974;2022-10-16T07:29:02;101180.81;;;11.91;100.00
59757;BME280;45631;51.962;5.974;2022-10-16T07:31:31;101181.38;;;11.96;100.00
59757;BME280;45631;51.962;5.974;2022-10-16T07:33:59;101199.44;;;12.03;100.00
59757;BME280;45631;51.962;5.974;2022-10-16T07:36:32;101198.47;;;12.04;100.00
59757;BME280;45631;51.962;5.974;2022-10-16T07:39:00;101204.41;;;12.07;100.00
59757;BME280;45631;51.962;5.974;2022-10-16T07:41:28;101213.69;;;12.13;100.00
59757;BME280;45631;51.962;5.974;2022-10-16T07:43:57;101218.47;;;12.21;100.00
59757;BME280;45631;51.962;5.974;2022-10-16T07:46:27;101217.13;;;12.28;100.00
59757;BME280;45631;51.962;5.974;2022-10-16T07:48:55;101221.13;;;12.33;100.00
59757;BME280;45631;51.962;5.974;2022-10-16T07:51:25;101217.88;;;12.43;100.00
59757;BME280;45631;51.962;5.974;2022-10-16T07:53:55;101226.22;;;12.62;100.00
59757;BME280;45631;51.962;5.974;2022-10-16T07:56:23;101225.22;;;13.04;100.00
59757;BME280;45631;51.962;5.974;2022-10-16T07:58:52;101225.91;;;13.31;100.00
59757;BME280;45631;51.962;5.974;2022-10-16T08:01:20;101229.81;;;13.39;100.00
59757;BME280;45631;51.962;5.974;2022-10-16T08:03:50;101236.16;;;13.36;100.00
59757;BME280;45631;51.962;5.974;2022-10-16T08:06:21;101242.31;;;13.37;100.00
59757;BME280;45631;51.962;5.974;2022-10-16T08:08:55;101245.88;;;13.48;100.00
59757;BME280;45631;51.962;5.974;2022-10-16T08:11:24;101248.28;;;13.89;100.00
59757;BME280;45631;51.962;5.974;2022-10-16T08:13:52;101243.06;;;14.00;100.00
59757;BME280;45631;51.962;5.974;2022-10-16T08:16:20;101245.31;;;14.17;100.00
59757;BME280;45631;51.962;5.974;2022-10-16T08:18:49;101239.00;;;14.31;100.00
59757;BME280;45631;51.962;5.974;2022-10-16T08:21:20;101239.16;;;14.77;100.00
59757;BME280;45631;51.962;5.974;2022-10-16T08:23:49;101231.09;;;14.78;100.00
59757;BME280;45631;51.962;5.974;2022-10-16T08:26:26;101244.91;;;14.70;100.00
59757;BME280;45631;51.962;5.974;2022-10-16T08:28:54;101251.34;;;15.02;100.00
59757;BME280;45631;51.962;5.974;2022-10-16T08:31:23;101265.81;;;15.20;100.00
59757;BME280;45631;51.962;5.974;2022-10-16T08:33:51;101258.00;;;15.19;100.00
59757;BME280;45631;51.962;5.974;2022-10-16T08:36:19;101271.47;;;15.38;100.00
59757;BME280;45631;51.962;5.974;2022-10-16T08:38:48;101268.22;;;15.24;100.00
59757;BME280;45631;51.962;5.974;2022-10-16T08:41:30;101272.31;;;15.50;100.00
59757;BME280;45631;51.962;5.974;2022-10-16T08:44:17;101272.28;;;15.62;100.00
59757;BME280;45631;51.962;5.974;2022-10-16T08:46:55;101283.50;;;15.65;100.00
59757;BME280;45631;51.962;5.974;2022-10-16T08:49:24;101285.91;;;15.68;100.00
59757;BME280;45631;51.962;5.974;2022-10-16T08:51:53;101293.75;;;15.59;100.00
59757;BME280;45631;51.962;5.974;2022-10-16T08:54:29;101299.78;;;15.83;100.00
59757;BME280;45631;51.962;5.974;2022-10-16T08:57:07;101301.81;;;15.80;100.00
59757;BME280;45631;51.962;5.974;2022-10-16T08:59:37;101297.38;;;15.80;100.00
59757;BME280;45631;51.962;5.974;2022-10-16T09:02:22;101306.13;;;15.92;100.00
59757;BME280;45631;51.962;5.974;2022-10-16T09:05:02;101304.91;;;16.08;100.00
59757;BME280;45631;51.962;5.974;2022-10-16T09:07:43;101308.97;;;16.23;100.00
59757;BME280;45631;51.962;5.974;2022-10-16T09:10:22;101312.66;;;16.32;100.00
59757;BME280;45631;51.962;5.974;2022-10-16T09:12:57;101315.44;;;16.42;100.00
59757;BME280;45631;51.962;5.974;2022-10-16T09:15:32;101311.97;;;16.51;100.00
59757;BME280;45631;51.962;5.974;2022-10-16T09:18:09;101314.44;;;16.43;100.00
59757;BME280;45631;51.962;5.974;2022-10-16T09:20:47;101326.69;;;16.55;100.00
59757;BME280;45631;51.962;5.974;2022-10-16T09:23:18;101333.41;;;16.70;100.00
59757;BME280;45631;51.962;5.974;2022-10-16T09:25:49;101340.34;;;16.83;100.00
59757;BME280;45631;51.962;5.974;2022-10-16T09:28:19;101333.56;;;16.90;100.00
59757;BME280;45631;51.962;5.974;2022-10-16T09:30:47;101335.38;;;17.11;100.00
59757;BME280;45631;51.962;5.974;2022-10-16T09:33:19;101332.94;;;17.29;100.00
59757;BME280;45631;51.962;5.974;2022-10-16T09:35:50;101335.72;;;17.27;100.00
59757;BME280;45631;51.962;5.974;2022-10-16T09:38:25;101334.94;;;17.36;100.00
59757;BME280;45631;51.962;5.974;2022-10-16T09:40:55;101335.22;;;17.64;100.00
59757;BME280;45631;51.962;5.974;2022-10-16T09:43:34;101341.56;;;17.83;100.00
59757;BME280;45631;51.962;5.974;2022-10-16T09:46:08;101346.22;;;17.90;100.00
59757;BME280;45631;51.962;5.974;2022-10-16T09:48:49;101345.19;;;17.82;100.00
59757;BME280;45631;51.962;5.974;2022-10-16T09:51:19;101349.34;;;17.96;100.00
59757;BME280;45631;51.962;5.974;2022-10-16T09:53:54;101352.63;;;18.19;100.00
59757;BME280;45631;51.962;5.974;2022-10-16T09:56:27;101356.41;;;18.36;100.00
59757;BME280;45631;51.962;5.974;2022-10-16T09:58:59;101361.06;;;18.63;100.00
59757;BME280;45631;51.962;5.974;2022-10-16T10:01:31;101357.69;;;18.81;100.00
59757;BME280;45631;51.962;5.974;2022-10-16T10:04:04;101359.78;;;18.87;100.00
59757;BME280;45631;51.962;5.974;2022-10-16T10:06:34;101360.75;;;19.15;100.00
59757;BME280;45631;51.962;5.974;2022-10-16T10:09:06;101355.22;;;19.74;100.00
59757;BME280;45631;51.962;5.974;2022-10-16T10:11:53;101360.75;;;20.00;100.00
59757;BME280;45631;51.962;5.974;2022-10-16T10:14:30;101369.13;;;20.05;100.00
59757;BME280;45631;51.962;5.974;2022-10-16T10:17:14;101376.16;;;20.06;100.00
59757;BME280;45631;51.962;5.974;2022-10-16T10:19:47;101370.81;;;20.06;100.00
59757;BME280;45631;51.962;5.974;2022-10-16T10:22:19;101368.38;;;20.13;100.00
59757;BME280;45631;51.962;5.974;2022-10-16T10:24:55;101364.81;;;20.22;100.00
59757;BME280;45631;51.962;5.974;2022-10-16T10:27:29;101366.13;;;20.54;100.00
59757;BME280;45631;51.962;5.974;2022-10-16T10:30:05;101360.03;;;21.06;99.11
59757;BME280;45631;51.962;5.974;2022-10-16T10:32:43;101363.31;;;20.92;96.85
59757;BME280;45631;51.962;5.974;2022-10-16T10:35:21;101371.78;;;20.69;97.31
59757;BME280;45631;51.962;5.974;2022-10-16T10:38:02;101376.84;;;20.90;96.41
59757;BME280;45631;51.962;5.974;2022-10-16T10:40:37;101371.56;;;20.81;93.05
59757;BME280;45631;51.962;5.974;2022-10-16T10:43:08;101377.53;;;21.19;84.13
59757;BME280;45631;51.962;5.974;2022-10-16T10:45:43;101375.13;;;21.60;82.03
59757;BME280;45631;51.962;5.974;2022-10-16T10:48:23;101373.13;;;21.36;76.57
59757;BME280;45631;51.962;5.974;2022-10-16T10:50:57;101383.91;;;21.78;76.65
59757;BME280;45631;51.962;5.974;2022-10-16T10:53:39;101381.16;;;21.97;73.91
59757;BME280;45631;51.962;5.974;2022-10-16T10:56:18;101382.22;;;22.28;73.65
59757;BME280;45631;51.962;5.974;2022-10-16T10:59:02;101380.97;;;21.98;72.04
59757;BME280;45631;51.962;5.974;2022-10-16T11:01:44;101378.06;;;22.34;70.30
59757;BME280;45631;51.962;5.974;2022-10-16T11:04:34;101384.34;;;22.68;72.29
59757;BME280;45631;51.962;5.974;2022-10-16T11:07:05;101380.81;;;22.92;68.70
59757;BME280;45631;51.962;5.974;2022-10-16T11:09:40;101394.53;;;22.97;67.86
59757;BME280;45631;51.962;5.974;2022-10-16T11:12:15;101394.19;;;22.84;66.88
59757;BME280;45631;51.962;5.974;2022-10-16T11:14:49;101394.34;;;22.57;63.13
59757;BME280;45631;51.962;5.974;2022-10-16T11:17:27;101387.81;;;22.43;66.44
59757;BME280;45631;51.962;5.974;2022-10-16T11:20:02;101392.19;;;22.44;67.31
59757;BME280;45631;51.962;5.974;2022-10-16T11:22:34;101400.13;;;22.20;65.13
59757;BME280;45631;51.962;5.974;2022-10-16T11:25:11;101401.72;;;21.96;65.59
59757;BME280;45631;51.962;5.974;2022-10-16T11:27:44;101410.94;;;21.67;64.62
59757;BME280;45631;51.962;5.974;2022-10-16T11:30:18;101411.94;;;22.43;64.83
59757;BME280;45631;51.962;5.974;2022-10-16T11:32:54;101414.28;;;22.63;63.55
59757;BME280;45631;51.962;5.974;2022-10-16T11:35:36;101418.47;;;22.49;64.72
59757;BME280;45631;51.962;5.974;2022-10-16T11:38:12;101408.47;;;22.76;63.35
59757;BME280;45631;51.962;5.974;2022-10-16T11:40:43;101410.44;;;22.57;63.66
59757;BME280;45631;51.962;5.974;2022-10-16T11:43:19;101408.63;;;22.83;64.20
59757;BME280;45631;51.962;5.974;2022-10-16T11:45:54;101404.91;;;22.67;61.24
59757;BME280;45631;51.962;5.974;2022-10-16T11:48:30;101410.47;;;23.32;63.04
59757;BME280;45631;51.962;5.974;2022-10-16T11:51:07;101404.00;;;22.34;61.20
59757;BME280;45631;51.962;5.974;2022-10-16T11:53:45;101414.53;;;23.19;62.81
59757;BME280;45631;51.962;5.974;2022-10-16T11:56:16;101405.34;;;23.70;59.20
59757;BME280;45631;51.962;5.974;2022-10-16T11:58:52;101401.56;;;23.95;57.83
59757;BME280;45631;51.962;5.974;2022-10-16T12:01:28;101424.63;;;23.65;58.90
59757;BME280;45631;51.962;5.974;2022-10-16T12:04:06;101423.59;;;23.74;58.43
59757;BME280;45631;51.962;5.974;2022-10-16T12:06:43;101421.06;;;23.89;57.41
59757;BME280;45631;51.962;5.974;2022-10-16T12:09:15;101430.31;;;23.78;56.48
59757;BME280;45631;51.962;5.974;2022-10-16T12:11:47;101423.00;;;23.48;57.20
59757;BME280;45631;51.962;5.974;2022-10-16T12:14:22;101429.22;;;22.74;58.52
59757;BME280;45631;51.962;5.974;2022-10-16T12:17:25;101427.88;;;23.52;58.88
59757;BME280;45631;51.962;5.974;2022-10-16T12:20:19;101429.41;;;24.34;57.07
59757;BME280;45631;51.962;5.974;2022-10-16T12:22:49;101439.34;;;23.94;56.44
59757;BME280;45631;51.962;5.974;2022-10-16T12:25:21;101439.50;;;23.92;54.27
59757;BME280;45631;51.962;5.974;2022-10-16T12:27:58;101433.38;;;24.46;53.12
59757;BME280;45631;51.962;5.974;2022-10-16T12:30:29;101433.97;;;25.03;54.05
59757;BME280;45631;51.962;5.974;2022-10-16T12:33:03;101436.03;;;25.01;50.98
59757;BME280;45631;51.962;5.974;2022-10-16T12:35:42;101435.56;;;24.74;51.30
59757;BME280;45631;51.962;5.974;2022-10-16T12:38:16;101437.06;;;25.15;51.83
59757;BME280;45631;51.962;5.974;2022-10-16T12:43:34;101435.97;;;25.09;49.37
59757;BME280;45631;51.962;5.974;2022-10-16T12:46:05;101438.66;;;24.86;49.50
59757;BME280;45631;51.962;5.974;2022-10-16T12:48:47;101446.88;;;24.70;50.47
59757;BME280;45631;51.962;5.974;2022-10-16T12:51:37;101446.22;;;24.59;50.77
59757;BME280;45631;51.962;5.974;2022-10-16T12:54:12;101454.31;;;24.83;51.15
59757;BME280;45631;51.962;5.974;2022-10-16T12:56:50;101446.69;;;24.71;48.13
59757;BME280;45631;51.962;5.974;2022-10-16T12:59:31;101450.63;;;24.84;49.23
59757;BME280;45631;51.962;5.974;2022-10-16T13:02:36;101447.59;;;25.25;49.79
59757;BME280;45631;51.962;5.974;2022-10-16T13:05:23;101439.03;;;25.06;52.20
59757;BME280;45631;51.962;5.974;2022-10-16T13:08:06;101441.84;;;24.35;50.75
59757;BME280;45631;51.962;5.974;2022-10-16T13:10:41;101447.78;;;24.54;50.08